Terminal Aerodrome Forecast
Issued by NWS Melbourne, FL

Home | Current Version | Previous Version | Text Only | Print | Product List | Glossary On
Versions: 1 2 3 4 5 6 7 8 9 10 11 12 13 14 15 16 17 18 19 20 21 22 23 24 25 26 27
000
FTUS42 KMLB 230300 AAB
TAFMCO
TAF AMD
KMCO 230314Z 2303/2324 VRB02KT P6SM FEW100 OVC150
     FM231400 VRB02KT P6SM FEW005 BKN100 BKN250
     FM232000 13006KT P6SM VCTS FEW025 SCT040CB BKN150=

USA.gov is the U.S. government's official web portal to all federal, state and local government web resources and services.